sensor_id;sensor_type;location;lat;lon;timestamp;pressure;altitude;pressure_sealevel;temperature;humidity
7333;BME280;3707;43.618;25.342;2024-02-16T00:02:02;100966.28;;;9.59;100.00
7333;BME280;3707;43.618;25.342;2024-02-16T00:04:29;100947.72;;;9.46;100.00
7333;BME280;3707;43.618;25.342;2024-02-16T00:06:57;100951.47;;;9.55;100.00
7333;BME280;3707;43.618;25.342;2024-02-16T00:09:24;100962.84;;;9.60;100.00
7333;BME280;3707;43.618;25.342;2024-02-16T00:11:51;100954.94;;;9.55;100.00
7333;BME280;3707;43.618;25.342;2024-02-16T00:14:18;100934.88;;;9.50;100.00
7333;BME280;3707;43.618;25.342;2024-02-16T00:16:46;100947.38;;;9.61;100.00
7333;BME280;3707;43.618;25.342;2024-02-16T00:19:13;100963.44;;;9.78;100.00
7333;BME280;3707;43.618;25.342;2024-02-16T00:21:40;100957.16;;;9.70;100.00
7333;BME280;3707;43.618;25.342;2024-02-16T00:24:09;100943.63;;;9.53;100.00
7333;BME280;3707;43.618;25.342;2024-02-16T00:26:36;100964.94;;;9.71;100.00
7333;BME280;3707;43.618;25.342;2024-02-16T00:29:05;100884.97;;;9.27;100.00
7333;BME280;3707;43.618;25.342;2024-02-16T00:31:31;100835.88;;;9.03;100.00
7333;BME280;3707;43.618;25.342;2024-02-16T00:33:58;100977.72;;;9.92;100.00
7333;BME280;3707;43.618;25.342;2024-02-16T00:36:26;100981.25;;;9.94;100.00
7333;BME280;3707;43.618;25.342;2024-02-16T00:38:52;100976.16;;;9.97;100.00
7333;BME280;3707;43.618;25.342;2024-02-16T00:41:22;100986.78;;;10.06;100.00
7333;BME280;3707;43.618;25.342;2024-02-16T00:43:49;100949.34;;;9.95;100.00
7333;BME280;3707;43.618;25.342;2024-02-16T00:46:17;100979.22;;;10.12;100.00
7333;BME280;3707;43.618;25.342;2024-02-16T00:48:44;100977.38;;;10.08;100.00
7333;BME280;3707;43.618;25.342;2024-02-16T00:51:11;100986.78;;;10.06;100.00
7333;BME280;3707;43.618;25.342;2024-02-16T00:53:38;100955.09;;;9.86;100.00
7333;BME280;3707;43.618;25.342;2024-02-16T00:56:06;100983.19;;;10.01;100.00
7333;BME280;3707;43.618;25.342;2024-02-16T00:58:35;100896.22;;;9.54;100.00
7333;BME280;3707;43.618;25.342;2024-02-16T01:01:04;100987.75;;;10.08;100.00
7333;BME280;3707;43.618;25.342;2024-02-16T01:03:32;100979.16;;;10.09;100.00
7333;BME280;3707;43.618;25.342;2024-02-16T01:05:59;100985.16;;;10.08;100.00
7333;BME280;3707;43.618;25.342;2024-02-16T01:08:26;100979.88;;;10.05;100.00
7333;BME280;3707;43.618;25.342;2024-02-16T01:10:53;100979.88;;;10.05;100.00
7333;BME280;3707;43.618;25.342;2024-02-16T01:13:20;100976.34;;;10.03;100.00
7333;BME280;3707;43.618;25.342;2024-02-16T01:15:48;100976.44;;;10.06;100.00
7333;BME280;3707;43.618;25.342;2024-02-16T01:18:15;100974.78;;;10.08;100.00
7333;BME280;3707;43.618;25.342;2024-02-16T01:20:42;100971.47;;;10.12;100.00
7333;BME280;3707;43.618;25.342;2024-02-16T01:23:08;100898.69;;;9.78;100.00
7333;BME280;3707;43.618;25.342;2024-02-16T01:25:35;100955.81;;;10.09;100.00
7333;BME280;3707;43.618;25.342;2024-02-16T01:28:02;100962.09;;;10.16;100.00
7333;BME280;3707;43.618;25.342;2024-02-16T01:30:29;100961.00;;;10.09;100.00
7333;BME280;3707;43.618;25.342;2024-02-16T01:32:57;100957.56;;;10.10;100.00
7333;BME280;3707;43.618;25.342;2024-02-16T01:35:24;100938.28;;;10.01;100.00
7333;BME280;3707;43.618;25.342;2024-02-16T01:37:51;100955.03;;;10.12;100.00
7333;BME280;3707;43.618;25.342;2024-02-16T01:40:17;100940.16;;;10.06;100.00
7333;BME280;3707;43.618;25.342;2024-02-16T01:42:44;100948.97;;;10.11;100.00
7333;BME280;3707;43.618;25.342;2024-02-16T01:45:11;100918.19;;;9.93;100.00
7333;BME280;3707;43.618;25.342;2024-02-16T01:47:39;100948.38;;;9.93;100.00
7333;BME280;3707;43.618;25.342;2024-02-16T01:50:10;100951.34;;;9.77;100.00
7333;BME280;3707;43.618;25.342;2024-02-16T01:52:37;100954.06;;;9.55;100.00
7333;BME280;3707;43.618;25.342;2024-02-16T01:55:05;100952.19;;;9.51;100.00
7333;BME280;3707;43.618;25.342;2024-02-16T01:57:34;100881.31;;;8.95;100.00
7333;BME280;3707;43.618;25.342;2024-02-16T02:00:01;100922.31;;;9.10;100.00
7333;BME280;3707;43.618;25.342;2024-02-16T02:02:29;100945.66;;;9.11;100.00
7333;BME280;3707;43.618;25.342;2024-02-16T02:04:55;100944.69;;;9.08;100.00
7333;BME280;3707;43.618;25.342;2024-02-16T02:07:26;100946.28;;;9.04;100.00
7333;BME280;3707;43.618;25.342;2024-02-16T02:09:53;100953.13;;;9.02;100.00
7333;BME280;3707;43.618;25.342;2024-02-16T02:12:20;100952.28;;;9.03;100.00
7333;BME280;3707;43.618;25.342;2024-02-16T02:14:47;100947.09;;;9.03;100.00
7333;BME280;3707;43.618;25.342;2024-02-16T02:17:14;100944.50;;;9.03;100.00
7333;BME280;3707;43.618;25.342;2024-02-16T02:19:41;100947.09;;;9.03;100.00
7333;BME280;3707;43.618;25.342;2024-02-16T02:22:13;100943.88;;;9.09;100.00
7333;BME280;3707;43.618;25.342;2024-02-16T02:24:40;100934.78;;;8.96;100.00
7333;BME280;3707;43.618;25.342;2024-02-16T02:27:07;100951.53;;;9.06;100.00
7333;BME280;3707;43.618;25.342;2024-02-16T02:29:34;100947.34;;;9.09;100.00
7333;BME280;3707;43.618;25.342;2024-02-16T02:32:01;100954.47;;;9.16;100.00
7333;BME280;3707;43.618;25.342;2024-02-16T02:34:27;100952.00;;;9.19;100.00
7333;BME280;3707;43.618;25.342;2024-02-16T02:36:54;100928.28;;;9.07;100.00
7333;BME280;3707;43.618;25.342;2024-02-16T02:39:23;100920.97;;;8.95;100.00
7333;BME280;3707;43.618;25.342;2024-02-16T02:41:49;100954.97;;;9.06;100.00
7333;BME280;3707;43.618;25.342;2024-02-16T02:44:16;100924.13;;;8.87;100.00
7333;BME280;3707;43.618;25.342;2024-02-16T02:46:43;100950.63;;;9.05;100.00
7333;BME280;3707;43.618;25.342;2024-02-16T02:49:10;100939.94;;;8.96;100.00
7333;BME280;3707;43.618;25.342;2024-02-16T02:51:37;100965.38;;;9.08;100.00
7333;BME280;3707;43.618;25.342;2024-02-16T02:54:04;100911.81;;;8.80;100.00
7333;BME280;3707;43.618;25.342;2024-02-16T02:56:32;100959.22;;;9.04;100.00
7333;BME280;3707;43.618;25.342;2024-02-16T02:58:59;100961.00;;;9.05;100.00
7333;BME280;3707;43.618;25.342;2024-02-16T03:01:26;100961.91;;;9.07;100.00
7333;BME280;3707;43.618;25.342;2024-02-16T03:03:52;100962.78;;;9.08;100.00
7333;BME280;3707;43.618;25.342;2024-02-16T03:06:20;100947.88;;;9.01;100.00
7333;BME280;3707;43.618;25.342;2024-02-16T03:08:47;100949.47;;;8.97;100.00
7333;BME280;3707;43.618;25.342;2024-02-16T03:11:13;100972.47;;;9.13;100.00
7333;BME280;3707;43.618;25.342;2024-02-16T03:13:42;100959.31;;;9.07;100.00
7333;BME280;3707;43.618;25.342;2024-02-16T03:16:08;100976.63;;;9.08;100.00
7333;BME280;3707;43.618;25.342;2024-02-16T03:18:36;100963.47;;;9.02;100.00
7333;BME280;3707;43.618;25.342;2024-02-16T03:21:03;100975.56;;;9.03;100.00
7333;BME280;3707;43.618;25.342;2024-02-16T03:23:30;100986.16;;;9.09;100.00
7333;BME280;3707;43.618;25.342;2024-02-16T03:25:57;100971.78;;;8.93;100.00
7333;BME280;3707;43.618;25.342;2024-02-16T03:28:24;100953.38;;;8.86;100.00
7333;BME280;3707;43.618;25.342;2024-02-16T03:30:52;100983.22;;;9.00;100.00
7333;BME280;3707;43.618;25.342;2024-02-16T03:33:20;100982.19;;;8.95;100.00
7333;BME280;3707;43.618;25.342;2024-02-16T03:35:47;100986.47;;;8.94;100.00
7333;BME280;3707;43.618;25.342;2024-02-16T03:38:14;100988.22;;;8.95;100.00
7333;BME280;3707;43.618;25.342;2024-02-16T03:40:40;100981.91;;;8.87;100.00
7333;BME280;3707;43.618;25.342;2024-02-16T03:43:07;100991.69;;;8.96;100.00
7333;BME280;3707;43.618;25.342;2024-02-16T03:45:34;100963.53;;;8.80;100.00
7333;BME280;3707;43.618;25.342;2024-02-16T03:48:02;100996.16;;;9.00;100.00
7333;BME280;3707;43.618;25.342;2024-02-16T03:50:29;100999.50;;;8.98;100.00
7333;BME280;3707;43.618;25.342;2024-02-16T03:52:56;100984.53;;;8.89;100.00
7333;BME280;3707;43.618;25.342;2024-02-16T03:55:24;101000.41;;;8.98;100.00
7333;BME280;3707;43.618;25.342;2024-02-16T03:57:51;100992.47;;;8.93;100.00
7333;BME280;3707;43.618;25.342;2024-02-16T04:00:18;101005.25;;;9.13;100.00
7333;BME280;3707;43.618;25.342;2024-02-16T04:02:45;101004.34;;;9.12;100.00
7333;BME280;3707;43.618;25.342;2024-02-16T04:05:14;100983.31;;;9.03;100.00
7333;BME280;3707;43.618;25.342;2024-02-16T04:07:41;100975.34;;;8.97;100.00
7333;BME280;3707;43.618;25.342;2024-02-16T04:10:08;101012.69;;;9.29;100.00
7333;BME280;3707;43.618;25.342;2024-02-16T04:12:35;100995.88;;;9.67;100.00
7333;BME280;3707;43.618;25.342;2024-02-16T04:15:03;100999.25;;;9.64;100.00
7333;BME280;3707;43.618;25.342;2024-02-16T04:17:30;101016.66;;;9.68;100.00
7333;BME280;3707;43.618;25.342;2024-02-16T04:19:57;101018.88;;;9.58;100.00
7333;BME280;3707;43.618;25.342;2024-02-16T04:22:25;101017.28;;;9.61;100.00
7333;BME280;3707;43.618;25.342;2024-02-16T04:24:52;101004.69;;;9.46;100.00
7333;BME280;3707;43.618;25.342;2024-02-16T04:27:18;101013.75;;;9.34;100.00
7333;BME280;3707;43.618;25.342;2024-02-16T04:29:45;101021.47;;;9.09;100.00
7333;BME280;3707;43.618;25.342;2024-02-16T04:32:12;101025.31;;;8.96;100.00
7333;BME280;3707;43.618;25.342;2024-02-16T04:34:39;101023.56;;;8.95;100.00
7333;BME280;3707;43.618;25.342;2024-02-16T04:37:05;101017.25;;;8.88;100.00
7333;BME280;3707;43.618;25.342;2024-02-16T04:39:33;101030.19;;;8.88;100.00
7333;BME280;3707;43.618;25.342;2024-02-16T04:42:00;101036.09;;;8.84;100.00
7333;BME280;3707;43.618;25.342;2024-02-16T04:44:27;101027.59;;;8.65;100.00
7333;BME280;3707;43.618;25.342;2024-02-16T04:46:54;101022.50;;;8.66;100.00
7333;BME280;3707;43.618;25.342;2024-02-16T04:49:21;101030.06;;;8.62;100.00
7333;BME280;3707;43.618;25.342;2024-02-16T04:51:48;101020.19;;;8.52;100.00
7333;BME280;3707;43.618;25.342;2024-02-16T04:54:14;101021.00;;;8.51;100.00
7333;BME280;3707;43.618;25.342;2024-02-16T04:56:43;101001.13;;;8.48;100.00
7333;BME280;3707;43.618;25.342;2024-02-16T04:59:09;101005.28;;;8.44;100.00
7333;BME280;3707;43.618;25.342;2024-02-16T05:01:36;101007.56;;;8.37;99.56
7333;BME280;3707;43.618;25.342;2024-02-16T05:04:03;101032.41;;;8.56;100.00
7333;BME280;3707;43.618;25.342;2024-02-16T05:06:30;101038.28;;;8.52;100.00
7333;BME280;3707;43.618;25.342;2024-02-16T05:08:57;101029.47;;;8.46;100.00
7333;BME280;3707;43.618;25.342;2024-02-16T05:11:24;101022.31;;;8.39;99.51
7333;BME280;3707;43.618;25.342;2024-02-16T05:13:54;101031.47;;;8.54;99.34
7333;BME280;3707;43.618;25.342;2024-02-16T05:16:21;100937.13;;;7.98;98.42
7333;BME280;3707;43.618;25.342;2024-02-16T05:18:48;101042.28;;;8.66;98.82
7333;BME280;3707;43.618;25.342;2024-02-16T05:21:16;101017.72;;;8.55;96.33
7333;BME280;3707;43.618;25.342;2024-02-16T05:23:43;101008.91;;;8.50;95.51
7333;BME280;3707;43.618;25.342;2024-02-16T05:26:09;101039.69;;;8.66;94.59
7333;BME280;3707;43.618;25.342;2024-02-16T05:28:36;101040.31;;;8.60;95.11
7333;BME280;3707;43.618;25.342;2024-02-16T05:31:13;101035.47;;;8.68;94.81
7333;BME280;3707;43.618;25.342;2024-02-16T05:33:41;101047.84;;;8.54;95.51
7333;BME280;3707;43.618;25.342;2024-02-16T05:36:08;100960.53;;;8.03;95.18
7333;BME280;3707;43.618;25.342;2024-02-16T05:38:35;101061.31;;;8.68;94.21
7333;BME280;3707;43.618;25.342;2024-02-16T05:41:06;101062.84;;;8.63;93.24
7333;BME280;3707;43.618;25.342;2024-02-16T05:43:33;101058.72;;;8.68;93.25
7333;BME280;3707;43.618;25.342;2024-02-16T05:46:00;101064.69;;;8.89;97.91
7333;BME280;3707;43.618;25.342;2024-02-16T05:48:28;101071.97;;;8.99;93.72
7333;BME280;3707;43.618;25.342;2024-02-16T05:50:57;101059.19;;;8.80;92.55
7333;BME280;3707;43.618;25.342;2024-02-16T05:53:26;101068.13;;;8.88;92.61
7333;BME280;3707;43.618;25.342;2024-02-16T05:55:52;101068.47;;;8.97;99.38
7333;BME280;3707;43.618;25.342;2024-02-16T05:58:20;101071.44;;;9.08;95.76
7333;BME280;3707;43.618;25.342;2024-02-16T06:00:48;101069.97;;;9.14;94.02
7333;BME280;3707;43.618;25.342;2024-02-16T06:03:15;101083.56;;;9.32;92.78
7333;BME280;3707;43.618;25.342;2024-02-16T06:05:43;101066.06;;;9.25;94.09
7333;BME280;3707;43.618;25.342;2024-02-16T06:08:10;101086.69;;;9.48;91.04
7333;BME280;3707;43.618;25.342;2024-02-16T06:10:37;101090.88;;;9.44;90.20
7333;BME280;3707;43.618;25.342;2024-02-16T06:13:04;101090.44;;;9.56;89.51
7333;BME280;3707;43.618;25.342;2024-02-16T06:15:32;101089.91;;;9.40;88.62
7333;BME280;3707;43.618;25.342;2024-02-16T06:17:59;101073.72;;;9.22;89.22
7333;BME280;3707;43.618;25.342;2024-02-16T06:20:27;101094.63;;;9.28;90.29
7333;BME280;3707;43.618;25.342;2024-02-16T06:22:55;101087.81;;;9.30;88.59
7333;BME280;3707;43.618;25.342;2024-02-16T06:25:21;101104.72;;;9.44;88.65
7333;BME280;3707;43.618;25.342;2024-02-16T06:27:48;101095.50;;;9.29;88.61
7333;BME280;3707;43.618;25.342;2024-02-16T06:30:15;101102.78;;;9.63;100.00
7333;BME280;3707;43.618;25.342;2024-02-16T06:32:42;101104.53;;;9.64;89.02
7333;BME280;3707;43.618;25.342;2024-02-16T06:35:09;101082.88;;;9.62;87.54
7333;BME280;3707;43.618;25.342;2024-02-16T06:37:36;101091.19;;;9.77;86.49
7333;BME280;3707;43.618;25.342;2024-02-16T06:40:06;101074.88;;;9.79;86.71
7333;BME280;3707;43.618;25.342;2024-02-16T06:42:35;101097.56;;;9.86;86.28
7333;BME280;3707;43.618;25.342;2024-02-16T06:45:02;101058.63;;;9.85;85.94
7333;BME280;3707;43.618;25.342;2024-02-16T06:47:30;101009.66;;;9.66;84.31
7333;BME280;3707;43.618;25.342;2024-02-16T06:49:57;101096.88;;;9.92;83.63
7333;BME280;3707;43.618;25.342;2024-02-16T06:52:24;101108.00;;;9.89;83.63
7333;BME280;3707;43.618;25.342;2024-02-16T06:54:50;101096.38;;;9.77;84.08
7333;BME280;3707;43.618;25.342;2024-02-16T06:57:20;101102.66;;;9.85;83.33
7333;BME280;3707;43.618;25.342;2024-02-16T06:59:47;101100.09;;;9.85;82.41
7333;BME280;3707;43.618;25.342;2024-02-16T07:02:13;101079.16;;;9.79;82.72
7333;BME280;3707;43.618;25.342;2024-02-16T07:04:41;101093.72;;;10.01;82.31
7333;BME280;3707;43.618;25.342;2024-02-16T07:07:08;101097.47;;;9.83;81.86
7333;BME280;3707;43.618;25.342;2024-02-16T07:09:35;101103.88;;;9.94;82.39
7333;BME280;3707;43.618;25.342;2024-02-16T07:12:02;101104.81;;;9.96;83.11
7333;BME280;3707;43.618;25.342;2024-02-16T07:14:30;101107.22;;;9.92;83.30
7333;BME280;3707;43.618;25.342;2024-02-16T07:16:57;101111.91;;;9.77;83.69
7333;BME280;3707;43.618;25.342;2024-02-16T07:19:24;101108.44;;;9.76;84.55
7333;BME280;3707;43.618;25.342;2024-02-16T07:21:51;101109.53;;;9.83;83.89
7333;BME280;3707;43.618;25.342;2024-02-16T07:24:17;101116.75;;;9.91;82.84
7333;BME280;3707;43.618;25.342;2024-02-16T07:26:44;101113.53;;;9.99;83.86
7333;BME280;3707;43.618;25.342;2024-02-16T07:29:11;101109.19;;;9.99;83.25
7333;BME280;3707;43.618;25.342;2024-02-16T07:31:43;101116.25;;;10.27;82.70
7333;BME280;3707;43.618;25.342;2024-02-16T07:34:10;101111.53;;;10.15;82.45
7333;BME280;3707;43.618;25.342;2024-02-16T07:36:37;101110.09;;;10.25;82.61
7333;BME280;3707;43.618;25.342;2024-02-16T07:39:04;101110.44;;;10.35;82.79
7333;BME280;3707;43.618;25.342;2024-02-16T07:41:31;101114.75;;;10.62;81.28
7333;BME280;3707;43.618;25.342;2024-02-16T07:43:58;101125.13;;;10.62;80.30
7333;BME280;3707;43.618;25.342;2024-02-16T07:46:24;101121.41;;;10.54;80.16
7333;BME280;3707;43.618;25.342;2024-02-16T07:48:52;101125.72;;;10.53;80.26
7333;BME280;3707;43.618;25.342;2024-02-16T07:51:19;101127.56;;;10.84;79.44
7333;BME280;3707;43.618;25.342;2024-02-16T07:53:46;101127.13;;;10.70;78.80
7333;BME280;3707;43.618;25.342;2024-02-16T07:56:14;101129.19;;;10.54;80.24
7333;BME280;3707;43.618;25.342;2024-02-16T07:58:41;101130.00;;;10.53;80.95
7333;BME280;3707;43.618;25.342;2024-02-16T08:01:08;101125.47;;;10.45;80.98
7333;BME280;3707;43.618;25.342;2024-02-16T08:03:36;101132.09;;;10.63;81.19
7333;BME280;3707;43.618;25.342;2024-02-16T08:06:05;101131.97;;;10.60;81.25
7333;BME280;3707;43.618;25.342;2024-02-16T08:08:32;101112.63;;;10.49;81.19
7333;BME280;3707;43.618;25.342;2024-02-16T08:10:59;101118.00;;;10.55;79.72
7333;BME280;3707;43.618;25.342;2024-02-16T08:13:26;101134.22;;;10.76;80.56
7333;BME280;3707;43.618;25.342;2024-02-16T08:15:53;101109.09;;;10.47;81.74
7333;BME280;3707;43.618;25.342;2024-02-16T08:18:20;101118.28;;;10.37;82.62
7333;BME280;3707;43.618;25.342;2024-02-16T08:20:47;101144.50;;;10.73;82.01
7333;BME280;3707;43.618;25.342;2024-02-16T08:23:16;101138.09;;;10.62;81.84
7333;BME280;3707;43.618;25.342;2024-02-16T08:25:43;101140.22;;;10.73;82.64
7333;BME280;3707;43.618;25.342;2024-02-16T08:28:09;101138.13;;;10.63;83.04
7333;BME280;3707;43.618;25.342;2024-02-16T08:30:36;101135.97;;;10.49;83.53
7333;BME280;3707;43.618;25.342;2024-02-16T08:33:06;101152.81;;;10.36;84.10
7333;BME280;3707;43.618;25.342;2024-02-16T08:35:33;101141.16;;;10.49;84.60
7333;BME280;3707;43.618;25.342;2024-02-16T08:38:00;101148.19;;;10.27;84.78
7333;BME280;3707;43.618;25.342;2024-02-16T08:40:28;101152.88;;;10.37;86.11
7333;BME280;3707;43.618;25.342;2024-02-16T08:42:55;101154.41;;;10.32;86.18
7333;BME280;3707;43.618;25.342;2024-02-16T08:45:22;101154.13;;;10.49;86.97
7333;BME280;3707;43.618;25.342;2024-02-16T08:47:49;101152.59;;;10.55;86.05
7333;BME280;3707;43.618;25.342;2024-02-16T08:50:16;101154.00;;;10.20;86.93
7333;BME280;3707;43.618;25.342;2024-02-16T08:52:43;101157.16;;;10.12;87.59
7333;BME280;3707;43.618;25.342;2024-02-16T08:55:10;101156.31;;;9.87;88.81
7333;BME280;3707;43.618;25.342;2024-02-16T08:57:39;101159.75;;;10.12;88.72
7333;BME280;3707;43.618;25.342;2024-02-16T09:00:07;101155.75;;;10.47;87.02
7333;BME280;3707;43.618;25.342;2024-02-16T09:02:35;101156.91;;;10.55;86.10
7333;BME280;3707;43.618;25.342;2024-02-16T09:05:02;101163.53;;;10.47;86.20
7333;BME280;3707;43.618;25.342;2024-02-16T09:07:28;101157.22;;;10.38;86.12
7333;BME280;3707;43.618;25.342;2024-02-16T09:09:55;101164.56;;;10.52;86.55
7333;BME280;3707;43.618;25.342;2024-02-16T09:12:23;101166.47;;;10.57;85.80
7333;BME280;3707;43.618;25.342;2024-02-16T09:14:51;101164.94;;;10.64;86.43
7333;BME280;3707;43.618;25.342;2024-02-16T09:17:18;101158.31;;;11.00;83.48
7333;BME280;3707;43.618;25.342;2024-02-16T09:19:45;101165.47;;;11.07;82.46
7333;BME280;3707;43.618;25.342;2024-02-16T09:22:12;101165.63;;;10.85;83.59
7333;BME280;3707;43.618;25.342;2024-02-16T09:24:40;101167.44;;;10.61;85.56
7333;BME280;3707;43.618;25.342;2024-02-16T09:27:07;101146.47;;;10.26;86.71
7333;BME280;3707;43.618;25.342;2024-02-16T09:29:35;101167.59;;;10.65;86.25
7333;BME280;3707;43.618;25.342;2024-02-16T09:32:04;101142.94;;;10.51;85.36
7333;BME280;3707;43.618;25.342;2024-02-16T09:34:31;101173.00;;;11.28;87.44
7333;BME280;3707;43.618;25.342;2024-02-16T09:36:58;101176.63;;;11.05;84.24
7333;BME280;3707;43.618;25.342;2024-02-16T09:39:24;101170.56;;;11.04;86.18
7333;BME280;3707;43.618;25.342;2024-02-16T09:41:53;101166.44;;;10.56;85.02
7333;BME280;3707;43.618;25.342;2024-02-16T09:44:22;101144.31;;;10.40;83.54
7333;BME280;3707;43.618;25.342;2024-02-16T09:46:48;101169.41;;;10.68;84.02
7333;BME280;3707;43.618;25.342;2024-02-16T09:49:17;101171.81;;;10.62;83.56
7333;BME280;3707;43.618;25.342;2024-02-16T09:51:43;101075.84;;;10.33;83.60
7333;BME280;3707;43.618;25.342;2024-02-16T09:54:11;101165.78;;;11.18;81.93
7333;BME280;3707;43.618;25.342;2024-02-16T09:56:38;101170.91;;;10.88;82.54
7333;BME280;3707;43.618;25.342;2024-02-16T09:59:04;101166.06;;;11.27;81.71
7333;BME280;3707;43.618;25.342;2024-02-16T10:01:32;101128.75;;;11.23;79.22
7333;BME280;3707;43.618;25.342;2024-02-16T10:04:05;101167.09;;;11.93;76.45
7333;BME280;3707;43.618;25.342;2024-02-16T10:06:45;101162.88;;;11.97;74.47
7333;BME280;3707;43.618;25.342;2024-02-16T10:09:22;101171.25;;;11.57;78.49
7333;BME280;3707;43.618;25.342;2024-02-16T10:11:49;101171.84;;;11.76;77.56
7333;BME280;3707;43.618;25.342;2024-02-16T10:14:16;101133.94;;;11.84;75.26
7333;BME280;3707;43.618;25.342;2024-02-16T10:16:42;101163.97;;;12.05;77.38
7333;BME280;3707;43.618;25.342;2024-02-16T10:19:09;101160.69;;;12.13;75.94
7333;BME280;3707;43.618;25.342;2024-02-16T10:21:38;101069.03;;;11.86;75.93
7333;BME280;3707;43.618;25.342;2024-02-16T10:24:06;101155.47;;;11.79;77.18
7333;BME280;3707;43.618;25.342;2024-02-16T10:26:34;101148.50;;;12.09;75.19
7333;BME280;3707;43.618;25.342;2024-02-16T10:29:03;101114.63;;;11.73;75.09
7333;BME280;3707;43.618;25.342;2024-02-16T10:31:31;101148.34;;;12.37;71.91
7333;BME280;3707;43.618;25.342;2024-02-16T10:33:59;101148.44;;;12.08;71.77
7333;BME280;3707;43.618;25.342;2024-02-16T10:36:27;101143.63;;;11.59;74.23
7333;BME280;3707;43.618;25.342;2024-02-16T10:38:56;101139.09;;;11.53;74.94
7333;BME280;3707;43.618;25.342;2024-02-16T10:41:26;101130.72;;;11.93;73.85
7333;BME280;3707;43.618;25.342;2024-02-16T10:43:55;101139.00;;;12.11;72.52
7333;BME280;3707;43.618;25.342;2024-02-16T10:46:22;101125.16;;;12.12;72.71
7333;BME280;3707;43.618;25.342;2024-02-16T10:48:50;101118.66;;;12.67;69.93
7333;BME280;3707;43.618;25.342;2024-02-16T10:51:20;101115.81;;;12.20;72.58
7333;BME280;3707;43.618;25.342;2024-02-16T10:53:48;101113.41;;;11.93;73.85
7333;BME280;3707;43.618;25.342;2024-02-16T10:56:26;101116.38;;;12.43;72.67
7333;BME280;3707;43.618;25.342;2024-02-16T10:58:54;101109.88;;;11.91;76.17
7333;BME280;3707;43.618;25.342;2024-02-16T11:01:20;101022.09;;;11.47;73.06
7333;BME280;3707;43.618;25.342;2024-02-16T11:03:47;101110.81;;;11.93;73.69
7333;BME280;3707;43.618;25.342;2024-02-16T11:06:15;101091.66;;;12.24;71.83
7333;BME280;3707;43.618;25.342;2024-02-16T11:08:43;101098.50;;;12.57;69.10
7333;BME280;3707;43.618;25.342;2024-02-16T11:11:09;101101.16;;;12.60;67.30
7333;BME280;3707;43.618;25.342;2024-02-16T11:13:42;101074.31;;;12.61;66.03
7333;BME280;3707;43.618;25.342;2024-02-16T11:16:10;101100.09;;;12.89;64.98
7333;BME280;3707;43.618;25.342;2024-02-16T11:18:39;101090.75;;;12.99;68.52
7333;BME280;3707;43.618;25.342;2024-02-16T11:21:06;101089.19;;;13.07;63.42
7333;BME280;3707;43.618;25.342;2024-02-16T11:23:35;101088.91;;;12.93;62.98
7333;BME280;3707;43.618;25.342;2024-02-16T11:26:04;101084.53;;;12.92;69.59
7333;BME280;3707;43.618;25.342;2024-02-16T11:28:34;101081.22;;;12.99;63.41
7333;BME280;3707;43.618;25.342;2024-02-16T11:31:04;101079.56;;;12.62;62.70
7333;BME280;3707;43.618;25.342;2024-02-16T11:33:32;101087.56;;;12.71;62.72
7333;BME280;3707;43.618;25.342;2024-02-16T11:36:01;101085.91;;;12.75;63.33
7333;BME280;3707;43.618;25.342;2024-02-16T11:38:30;101007.25;;;12.48;61.85
7333;BME280;3707;43.618;25.342;2024-02-16T11:40:59;101080.63;;;12.72;61.94
7333;BME280;3707;43.618;25.342;2024-02-16T11:43:26;101066.00;;;12.39;63.25
7333;BME280;3707;43.618;25.342;2024-02-16T11:45:53;101081.75;;;12.83;63.39
7333;BME280;3707;43.618;25.342;2024-02-16T11:48:21;101087.38;;;13.03;62.64
7333;BME280;3707;43.618;25.342;2024-02-16T11:50:58;101064.59;;;12.91;63.72
7333;BME280;3707;43.618;25.342;2024-02-16T11:53:25;101075.59;;;12.79;64.69
7333;BME280;3707;43.618;25.342;2024-02-16T11:55:52;101073.94;;;12.83;64.43
7333;BME280;3707;43.618;25.342;2024-02-16T11:58:19;101075.00;;;12.91;64.41
7333;BME280;3707;43.618;25.342;2024-02-16T12:00:48;101056.56;;;12.82;64.13
7333;BME280;3707;43.618;25.342;2024-02-16T12:03:20;101067.50;;;12.67;65.74
7333;BME280;3707;43.618;25.342;2024-02-16T12:05:51;101058.78;;;13.04;65.17
7333;BME280;3707;43.618;25.342;2024-02-16T12:08:18;100981.13;;;12.83;64.02
7333;BME280;3707;43.618;25.342;2024-02-16T12:10:46;100978.16;;;12.67;64.37
7333;BME280;3707;43.618;25.342;2024-02-16T12:13:13;101071.00;;;13.50;62.99
7333;BME280;3707;43.618;25.342;2024-02-16T12:15:40;101062.69;;;13.69;62.01
7333;BME280;3707;43.618;25.342;2024-02-16T12:18:07;101063.03;;;13.43;62.11
7333;BME280;3707;43.618;25.342;2024-02-16T12:20:35;101018.06;;;12.66;64.40
7333;BME280;3707;43.618;25.342;2024-02-16T12:23:11;101060.88;;;12.81;66.27
7333;BME280;3707;43.618;25.342;2024-02-16T12:25:38;101050.69;;;12.92;73.97
7333;BME280;3707;43.618;25.342;2024-02-16T12:28:05;100969.19;;;12.53;66.02
7333;BME280;3707;43.618;25.342;2024-02-16T12:30:33;101043.94;;;13.00;65.63
7333;BME280;3707;43.618;25.342;2024-02-16T12:33:00;101057.44;;;12.82;66.03
7333;BME280;3707;43.618;25.342;2024-02-16T12:35:27;101027.09;;;12.83;66.68
7333;BME280;3707;43.618;25.342;2024-02-16T12:37:55;101050.94;;;13.45;69.55
7333;BME280;3707;43.618;25.342;2024-02-16T12:40:22;101052.22;;;13.21;64.54
7333;BME280;3707;43.618;25.342;2024-02-16T12:42:49;101036.31;;;13.09;64.03
7333;BME280;3707;43.618;25.342;2024-02-16T12:45:15;101060.44;;;13.02;64.37
7333;BME280;3707;43.618;25.342;2024-02-16T12:47:42;101058.03;;;13.10;65.14
7333;BME280;3707;43.618;25.342;2024-02-16T12:50:10;101053.63;;;13.07;64.08
7333;BME280;3707;43.618;25.342;2024-02-16T12:52:37;101055.25;;;13.02;64.69
7333;BME280;3707;43.618;25.342;2024-02-16T12:55:06;101053.38;;;12.95;63.80
7333;BME280;3707;43.618;25.342;2024-02-16T12:57:35;101051.34;;;12.82;64.87
7333;BME280;3707;43.618;25.342;2024-02-16T13:00:02;101052.91;;;12.74;65.11
7333;BME280;3707;43.618;25.342;2024-02-16T13:02:29;101027.81;;;12.76;68.36
7333;BME280;3707;43.618;25.342;2024-02-16T13:04:56;101051.72;;;12.60;66.22